sensor_id;sensor_type;location;lat;lon;timestamp;P1;durP1;ratioP1;P2;durP2;ratioP2
65387;SDS011;51992;53.528;49.474;2023-04-28T00:02:14;18.08;;;8.75;;
65387;SDS011;51992;53.528;49.474;2023-04-28T00:04:40;14.25;;;7.28;;
65387;SDS011;51992;53.528;49.474;2023-04-28T00:07:06;15.85;;;8.82;;
65387;SDS011;51992;53.528;49.474;2023-04-28T00:09:32;21.23;;;8.35;;
65387;SDS011;51992;53.528;49.474;2023-04-28T00:11:58;21.10;;;8.52;;
65387;SDS011;51992;53.528;49.474;2023-04-28T00:14:24;19.50;;;9.57;;
65387;SDS011;51992;53.528;49.474;2023-04-28T00:16:50;17.23;;;8.55;;
65387;SDS011;51992;53.528;49.474;2023-04-28T00:19:16;16.42;;;8.52;;
65387;SDS011;51992;53.528;49.474;2023-04-28T00:21:42;15.40;;;8.38;;
65387;SDS011;51992;53.528;49.474;2023-04-28T00:24:08;15.20;;;8.88;;
65387;SDS011;51992;53.528;49.474;2023-04-28T00:26:34;16.52;;;8.27;;
65387;SDS011;51992;53.528;49.474;2023-04-28T00:29:00;20.20;;;12.35;;
65387;SDS011;51992;53.528;49.474;2023-04-28T00:31:26;10.35;;;7.75;;
65387;SDS011;51992;53.528;49.474;2023-04-28T00:33:52;14.43;;;8.73;;
65387;SDS011;51992;53.528;49.474;2023-04-28T00:36:18;19.33;;;9.70;;
65387;SDS011;51992;53.528;49.474;2023-04-28T00:38:44;10.98;;;8.20;;
65387;SDS011;51992;53.528;49.474;2023-04-28T00:41:10;12.63;;;8.27;;
65387;SDS011;51992;53.528;49.474;2023-04-28T00:43:43;15.95;;;8.57;;
65387;SDS011;51992;53.528;49.474;2023-04-28T00:46:09;15.35;;;8.25;;
65387;SDS011;51992;53.528;49.474;2023-04-28T00:48:36;13.80;;;8.05;;
65387;SDS011;51992;53.528;49.474;2023-04-28T00:51:03;12.38;;;7.40;;
65387;SDS011;51992;53.528;49.474;2023-04-28T00:53:31;10.75;;;7.35;;
65387;SDS011;51992;53.528;49.474;2023-04-28T00:55:57;12.98;;;6.63;;
65387;SDS011;51992;53.528;49.474;2023-04-28T00:58:23;8.35;;;6.13;;
65387;SDS011;51992;53.528;49.474;2023-04-28T01:00:49;11.38;;;6.30;;
65387;SDS011;51992;53.528;49.474;2023-04-28T01:03:15;8.65;;;5.80;;
65387;SDS011;51992;53.528;49.474;2023-04-28T01:05:41;10.32;;;5.47;;
65387;SDS011;51992;53.528;49.474;2023-04-28T01:08:07;8.48;;;5.80;;
65387;SDS011;51992;53.528;49.474;2023-04-28T01:10:33;8.57;;;5.88;;
65387;SDS011;51992;53.528;49.474;2023-04-28T01:12:59;8.23;;;5.60;;
65387;SDS011;51992;53.528;49.474;2023-04-28T01:15:25;11.52;;;6.07;;
65387;SDS011;51992;53.528;49.474;2023-04-28T01:17:51;8.18;;;6.07;;
65387;SDS011;51992;53.528;49.474;2023-04-28T01:20:17;8.23;;;5.68;;
65387;SDS011;51992;53.528;49.474;2023-04-28T01:22:43;19.50;;;6.25;;
65387;SDS011;51992;53.528;49.474;2023-04-28T01:25:09;9.77;;;6.10;;
65387;SDS011;51992;53.528;49.474;2023-04-28T01:27:35;7.90;;;5.80;;
65387;SDS011;51992;53.528;49.474;2023-04-28T01:30:01;9.98;;;6.75;;
65387;SDS011;51992;53.528;49.474;2023-04-28T01:32:27;12.25;;;6.72;;
65387;SDS011;51992;53.528;49.474;2023-04-28T01:34:53;18.40;;;8.82;;
65387;SDS011;51992;53.528;49.474;2023-04-28T01:37:19;30.10;;;10.05;;
65387;SDS011;51992;53.528;49.474;2023-04-28T01:39:45;34.38;;;10.50;;
65387;SDS011;51992;53.528;49.474;2023-04-28T01:42:11;25.85;;;10.20;;
65387;SDS011;51992;53.528;49.474;2023-04-28T01:44:37;30.40;;;9.43;;
65387;SDS011;51992;53.528;49.474;2023-04-28T01:47:03;25.85;;;9.32;;
65387;SDS011;51992;53.528;49.474;2023-04-28T01:49:29;26.95;;;10.25;;
65387;SDS011;51992;53.528;49.474;2023-04-28T01:51:55;26.27;;;9.55;;
65387;SDS011;51992;53.528;49.474;2023-04-28T01:54:21;22.40;;;9.55;;
65387;SDS011;51992;53.528;49.474;2023-04-28T01:56:47;21.83;;;11.52;;
65387;SDS011;51992;53.528;49.474;2023-04-28T01:59:13;23.45;;;10.50;;
65387;SDS011;51992;53.528;49.474;2023-04-28T02:01:39;21.48;;;10.35;;
65387;SDS011;51992;53.528;49.474;2023-04-28T02:04:05;24.52;;;11.00;;
65387;SDS011;51992;53.528;49.474;2023-04-28T02:06:31;29.65;;;11.20;;
65387;SDS011;51992;53.528;49.474;2023-04-28T02:08:57;24.02;;;10.63;;
65387;SDS011;51992;53.528;49.474;2023-04-28T02:11:23;29.90;;;11.18;;
65387;SDS011;51992;53.528;49.474;2023-04-28T02:13:49;39.30;;;11.63;;
65387;SDS011;51992;53.528;49.474;2023-04-28T02:16:15;49.50;;;12.20;;
65387;SDS011;51992;53.528;49.474;2023-04-28T02:18:41;38.83;;;12.20;;
65387;SDS011;51992;53.528;49.474;2023-04-28T02:21:10;39.53;;;10.27;;
65387;SDS011;51992;53.528;49.474;2023-04-28T02:23:37;28.58;;;10.23;;
65387;SDS011;51992;53.528;49.474;2023-04-28T02:26:03;40.85;;;10.63;;
65387;SDS011;51992;53.528;49.474;2023-04-28T02:28:29;26.02;;;9.75;;
65387;SDS011;51992;53.528;49.474;2023-04-28T02:31:02;32.28;;;9.88;;
65387;SDS011;51992;53.528;49.474;2023-04-28T02:33:28;34.80;;;10.48;;
65387;SDS011;51992;53.528;49.474;2023-04-28T02:35:58;38.85;;;10.18;;
65387;SDS011;51992;53.528;49.474;2023-04-28T02:38:25;34.35;;;10.20;;
65387;SDS011;51992;53.528;49.474;2023-04-28T02:41:01;40.03;;;10.98;;
65387;SDS011;51992;53.528;49.474;2023-04-28T02:43:27;46.30;;;11.55;;
65387;SDS011;51992;53.528;49.474;2023-04-28T02:45:53;35.92;;;11.07;;
65387;SDS011;51992;53.528;49.474;2023-04-28T02:48:19;29.00;;;9.60;;
65387;SDS011;51992;53.528;49.474;2023-04-28T02:50:45;19.42;;;8.45;;
65387;SDS011;51992;53.528;49.474;2023-04-28T02:53:11;16.83;;;7.68;;
65387;SDS011;51992;53.528;49.474;2023-04-28T02:55:37;14.52;;;7.28;;
65387;SDS011;51992;53.528;49.474;2023-04-28T02:58:03;23.08;;;6.80;;
65387;SDS011;51992;53.528;49.474;2023-04-28T03:00:29;17.40;;;8.00;;
65387;SDS011;51992;53.528;49.474;2023-04-28T03:02:54;21.40;;;8.00;;
65387;SDS011;51992;53.528;49.474;2023-04-28T03:05:20;27.10;;;8.43;;
65387;SDS011;51992;53.528;49.474;2023-04-28T03:07:46;18.00;;;8.15;;
65387;SDS011;51992;53.528;49.474;2023-04-28T03:10:12;23.02;;;7.88;;
65387;SDS011;51992;53.528;49.474;2023-04-28T03:12:38;26.05;;;9.15;;
65387;SDS011;51992;53.528;49.474;2023-04-28T03:15:03;42.80;;;10.38;;
65387;SDS011;51992;53.528;49.474;2023-04-28T03:17:33;32.58;;;11.68;;
65387;SDS011;51992;53.528;49.474;2023-04-28T03:19:59;24.23;;;9.43;;
65387;SDS011;51992;53.528;49.474;2023-04-28T03:22:24;21.40;;;8.43;;
65387;SDS011;51992;53.528;49.474;2023-04-28T03:24:50;18.45;;;7.93;;
65387;SDS011;51992;53.528;49.474;2023-04-28T03:27:16;28.60;;;8.27;;
65387;SDS011;51992;53.528;49.474;2023-04-28T03:29:41;20.02;;;8.90;;
65387;SDS011;51992;53.528;49.474;2023-04-28T03:32:07;26.75;;;9.35;;
65387;SDS011;51992;53.528;49.474;2023-04-28T03:34:33;31.67;;;9.38;;
65387;SDS011;51992;53.528;49.474;2023-04-28T03:36:59;24.25;;;9.10;;
65387;SDS011;51992;53.528;49.474;2023-04-28T03:39:24;19.48;;;8.43;;
65387;SDS011;51992;53.528;49.474;2023-04-28T03:41:51;16.95;;;8.13;;
65387;SDS011;51992;53.528;49.474;2023-04-28T03:44:16;14.98;;;8.68;;
65387;SDS011;51992;53.528;49.474;2023-04-28T03:46:42;18.20;;;8.80;;
65387;SDS011;51992;53.528;49.474;2023-04-28T03:49:08;29.75;;;9.48;;
65387;SDS011;51992;53.528;49.474;2023-04-28T03:51:34;32.20;;;9.57;;
65387;SDS011;51992;53.528;49.474;2023-04-28T03:54:00;20.42;;;9.30;;
65387;SDS011;51992;53.528;49.474;2023-04-28T03:56:26;19.67;;;8.60;;
65387;SDS011;51992;53.528;49.474;2023-04-28T03:58:52;21.38;;;8.52;;
65387;SDS011;51992;53.528;49.474;2023-04-28T04:01:18;20.73;;;9.57;;
65387;SDS011;51992;53.528;49.474;2023-04-28T04:03:44;53.85;;;27.10;;
65387;SDS011;51992;53.528;49.474;2023-04-28T04:06:10;51.13;;;24.02;;
65387;SDS011;51992;53.528;49.474;2023-04-28T04:08:36;24.50;;;10.70;;
65387;SDS011;51992;53.528;49.474;2023-04-28T04:11:02;34.50;;;12.85;;
65387;SDS011;51992;53.528;49.474;2023-04-28T04:13:28;21.00;;;9.65;;
65387;SDS011;51992;53.528;49.474;2023-04-28T04:15:54;22.48;;;13.48;;
65387;SDS011;51992;53.528;49.474;2023-04-28T04:18:20;31.45;;;17.05;;
65387;SDS011;51992;53.528;49.474;2023-04-28T04:20:46;31.92;;;16.30;;
65387;SDS011;51992;53.528;49.474;2023-04-28T04:23:14;34.40;;;13.27;;
65387;SDS011;51992;53.528;49.474;2023-04-28T04:25:40;59.58;;;37.80;;
65387;SDS011;51992;53.528;49.474;2023-04-28T04:28:06;28.02;;;16.92;;
65387;SDS011;51992;53.528;49.474;2023-04-28T04:30:32;22.02;;;11.80;;
65387;SDS011;51992;53.528;49.474;2023-04-28T04:32:58;33.28;;;17.42;;
65387;SDS011;51992;53.528;49.474;2023-04-28T04:35:24;32.60;;;13.80;;
65387;SDS011;51992;53.528;49.474;2023-04-28T04:37:51;30.65;;;14.18;;
65387;SDS011;51992;53.528;49.474;2023-04-28T04:40:17;23.52;;;8.48;;
65387;SDS011;51992;53.528;49.474;2023-04-28T04:42:43;27.30;;;8.10;;
65387;SDS011;51992;53.528;49.474;2023-04-28T04:45:09;28.80;;;11.80;;
65387;SDS011;51992;53.528;49.474;2023-04-28T04:47:35;21.77;;;8.50;;
65387;SDS011;51992;53.528;49.474;2023-04-28T04:50:01;36.78;;;24.05;;
65387;SDS011;51992;53.528;49.474;2023-04-28T04:52:27;29.08;;;21.35;;
65387;SDS011;51992;53.528;49.474;2023-04-28T04:54:53;20.85;;;8.13;;
65387;SDS011;51992;53.528;49.474;2023-04-28T04:57:21;12.20;;;7.47;;
65387;SDS011;51992;53.528;49.474;2023-04-28T04:59:47;22.63;;;7.25;;
65387;SDS011;51992;53.528;49.474;2023-04-28T05:02:13;36.50;;;23.15;;
65387;SDS011;51992;53.528;49.474;2023-04-28T05:04:39;17.33;;;7.95;;
65387;SDS011;51992;53.528;49.474;2023-04-28T05:07:05;41.70;;;18.55;;
65387;SDS011;51992;53.528;49.474;2023-04-28T05:09:31;21.33;;;10.10;;
65387;SDS011;51992;53.528;49.474;2023-04-28T05:11:59;24.13;;;12.00;;
65387;SDS011;51992;53.528;49.474;2023-04-28T05:14:25;50.60;;;11.52;;
65387;SDS011;51992;53.528;49.474;2023-04-28T05:16:51;16.55;;;7.00;;
65387;SDS011;51992;53.528;49.474;2023-04-28T05:19:17;15.43;;;6.65;;
65387;SDS011;51992;53.528;49.474;2023-04-28T05:21:43;7.25;;;5.55;;
65387;SDS011;51992;53.528;49.474;2023-04-28T05:24:12;13.55;;;7.25;;
65387;SDS011;51992;53.528;49.474;2023-04-28T05:26:38;22.35;;;12.45;;
65387;SDS011;51992;53.528;49.474;2023-04-28T05:29:04;23.85;;;21.33;;
65387;SDS011;51992;53.528;49.474;2023-04-28T05:31:30;24.85;;;17.83;;
65387;SDS011;51992;53.528;49.474;2023-04-28T05:33:57;15.20;;;10.00;;
65387;SDS011;51992;53.528;49.474;2023-04-28T06:18:43;14.23;;;5.65;;
65387;SDS011;51992;53.528;49.474;2023-04-28T06:21:09;12.05;;;5.55;;
65387;SDS011;51992;53.528;49.474;2023-04-28T06:23:35;25.70;;;6.00;;
65387;SDS011;51992;53.528;49.474;2023-04-28T06:26:03;18.60;;;5.03;;
65387;SDS011;51992;53.528;49.474;2023-04-28T06:28:28;9.63;;;3.97;;
65387;SDS011;51992;53.528;49.474;2023-04-28T06:30:54;4.55;;;4.15;;
65387;SDS011;51992;53.528;49.474;2023-04-28T06:33:20;6.60;;;3.65;;
65387;SDS011;51992;53.528;49.474;2023-04-28T06:35:46;9.75;;;4.45;;
65387;SDS011;51992;53.528;49.474;2023-04-28T06:38:11;8.85;;;4.93;;
65387;SDS011;51992;53.528;49.474;2023-04-28T06:40:37;28.42;;;8.30;;
65387;SDS011;51992;53.528;49.474;2023-04-28T06:43:05;16.05;;;6.63;;
65387;SDS011;51992;53.528;49.474;2023-04-28T06:45:30;12.85;;;5.30;;
65387;SDS011;51992;53.528;49.474;2023-04-28T06:47:56;8.43;;;4.55;;
65387;SDS011;51992;53.528;49.474;2023-04-28T06:50:22;8.15;;;4.28;;
65387;SDS011;51992;53.528;49.474;2023-04-28T06:52:48;8.73;;;4.43;;
65387;SDS011;51992;53.528;49.474;2023-04-28T06:55:14;44.33;;;11.35;;
65387;SDS011;51992;53.528;49.474;2023-04-28T06:57:41;14.88;;;6.00;;
65387;SDS011;51992;53.528;49.474;2023-04-28T07:00:07;40.53;;;9.10;;
65387;SDS011;51992;53.528;49.474;2023-04-28T07:02:33;28.75;;;7.55;;
65387;SDS011;51992;53.528;49.474;2023-04-28T07:04:59;19.90;;;8.52;;
65387;SDS011;51992;53.528;49.474;2023-04-28T07:07:25;39.08;;;8.00;;
65387;SDS011;51992;53.528;49.474;2023-04-28T07:09:50;112.85;;;13.02;;
65387;SDS011;51992;53.528;49.474;2023-04-28T07:12:18;92.03;;;15.00;;
65387;SDS011;51992;53.528;49.474;2023-04-28T07:14:43;19.10;;;6.28;;
65387;SDS011;51992;53.528;49.474;2023-04-28T07:17:09;18.38;;;5.07;;
65387;SDS011;51992;53.528;49.474;2023-04-28T07:19:35;21.70;;;5.25;;
65387;SDS011;51992;53.528;49.474;2023-04-28T07:22:01;19.10;;;5.63;;
65387;SDS011;51992;53.528;49.474;2023-04-28T07:24:26;14.77;;;5.82;;
65387;SDS011;51992;53.528;49.474;2023-04-28T07:26:52;20.10;;;5.78;;
65387;SDS011;51992;53.528;49.474;2023-04-28T07:29:18;9.98;;;4.20;;
65387;SDS011;51992;53.528;49.474;2023-04-28T07:31:44;26.08;;;5.40;;
65387;SDS011;51992;53.528;49.474;2023-04-28T07:34:10;24.42;;;8.85;;
65387;SDS011;51992;53.528;49.474;2023-04-28T07:36:36;32.03;;;6.10;;
65387;SDS011;51992;53.528;49.474;2023-04-28T07:39:02;30.10;;;5.75;;
65387;SDS011;51992;53.528;49.474;2023-04-28T07:41:27;6.57;;;3.75;;
65387;SDS011;51992;53.528;49.474;2023-04-28T07:43:53;27.52;;;4.95;;
65387;SDS011;51992;53.528;49.474;2023-04-28T07:46:19;31.92;;;5.95;;
65387;SDS011;51992;53.528;49.474;2023-04-28T07:48:45;21.00;;;4.97;;
65387;SDS011;51992;53.528;49.474;2023-04-28T07:51:10;6.68;;;3.85;;
65387;SDS011;51992;53.528;49.474;2023-04-28T07:53:36;60.85;;;7.85;;
65387;SDS011;51992;53.528;49.474;2023-04-28T07:56:02;32.15;;;6.38;;
65387;SDS011;51992;53.528;49.474;2023-04-28T07:58:27;34.22;;;6.72;;
65387;SDS011;51992;53.528;49.474;2023-04-28T08:00:53;14.48;;;5.05;;
65387;SDS011;51992;53.528;49.474;2023-04-28T08:03:19;33.03;;;6.35;;
65387;SDS011;51992;53.528;49.474;2023-04-28T08:05:48;18.65;;;4.85;;
65387;SDS011;51992;53.528;49.474;2023-04-28T08:08:14;9.38;;;4.35;;
65387;SDS011;51992;53.528;49.474;2023-04-28T08:10:39;8.55;;;4.13;;
65387;SDS011;51992;53.528;49.474;2023-04-28T08:13:07;7.15;;;3.88;;
65387;SDS011;51992;53.528;49.474;2023-04-28T08:15:32;9.70;;;3.83;;
65387;SDS011;51992;53.528;49.474;2023-04-28T08:17:58;9.13;;;3.70;;
65387;SDS011;51992;53.528;49.474;2023-04-28T08:20:24;11.63;;;3.97;;
65387;SDS011;51992;53.528;49.474;2023-04-28T08:22:50;16.63;;;4.28;;
65387;SDS011;51992;53.528;49.474;2023-04-28T08:25:15;23.63;;;4.75;;
65387;SDS011;51992;53.528;49.474;2023-04-28T08:27:42;8.10;;;4.03;;
65387;SDS011;51992;53.528;49.474;2023-04-28T08:30:08;8.77;;;4.80;;
65387;SDS011;51992;53.528;49.474;2023-04-28T08:32:34;10.63;;;4.80;;
65387;SDS011;51992;53.528;49.474;2023-04-28T08:35:00;25.30;;;5.75;;
65387;SDS011;51992;53.528;49.474;2023-04-28T08:37:26;13.13;;;5.40;;
65387;SDS011;51992;53.528;49.474;2023-04-28T08:39:52;12.25;;;5.00;;
65387;SDS011;51992;53.528;49.474;2023-04-28T08:42:29;17.23;;;7.40;;
65387;SDS011;51992;53.528;49.474;2023-04-28T08:44:56;18.25;;;6.85;;
65387;SDS011;51992;53.528;49.474;2023-04-28T08:47:34;16.35;;;6.80;;
65387;SDS011;51992;53.528;49.474;2023-04-28T08:50:04;24.95;;;8.23;;
65387;SDS011;51992;53.528;49.474;2023-04-28T08:52:31;12.63;;;7.05;;
65387;SDS011;51992;53.528;49.474;2023-04-28T08:54:59;12.52;;;7.82;;
65387;SDS011;51992;53.528;49.474;2023-04-28T08:57:26;14.43;;;7.47;;
65387;SDS011;51992;53.528;49.474;2023-04-28T08:59:52;22.25;;;8.07;;
65387;SDS011;51992;53.528;49.474;2023-04-28T09:02:18;15.93;;;7.60;;
65387;SDS011;51992;53.528;49.474;2023-04-28T09:04:46;16.45;;;7.57;;
65387;SDS011;51992;53.528;49.474;2023-04-28T09:07:12;17.27;;;8.10;;
65387;SDS011;51992;53.528;49.474;2023-04-28T09:09:38;24.20;;;8.85;;
65387;SDS011;51992;53.528;49.474;2023-04-28T09:12:05;13.27;;;7.90;;
65387;SDS011;51992;53.528;49.474;2023-04-28T09:14:35;20.83;;;8.13;;
65387;SDS011;51992;53.528;49.474;2023-04-28T09:17:01;15.02;;;9.63;;
65387;SDS011;51992;53.528;49.474;2023-04-28T09:19:34;9.95;;;6.53;;
65387;SDS011;51992;53.528;49.474;2023-04-28T09:22:03;8.45;;;5.88;;
65387;SDS011;51992;53.528;49.474;2023-04-28T09:24:37;18.13;;;6.85;;
65387;SDS011;51992;53.528;49.474;2023-04-28T09:27:08;15.02;;;6.38;;
65387;SDS011;51992;53.528;49.474;2023-04-28T09:29:38;18.90;;;7.07;;
65387;SDS011;51992;53.528;49.474;2023-04-28T09:32:20;11.30;;;6.70;;
65387;SDS011;51992;53.528;49.474;2023-04-28T09:34:47;14.23;;;7.53;;
65387;SDS011;51992;53.528;49.474;2023-04-28T09:37:20;13.68;;;7.55;;
65387;SDS011;51992;53.528;49.474;2023-04-28T09:39:46;19.40;;;7.13;;
65387;SDS011;51992;53.528;49.474;2023-04-28T09:45:04;13.48;;;7.40;;
65387;SDS011;51992;53.528;49.474;2023-04-28T09:47:30;15.93;;;7.72;;
65387;SDS011;51992;53.528;49.474;2023-04-28T09:50:00;14.10;;;7.38;;
65387;SDS011;51992;53.528;49.474;2023-04-28T09:52:26;15.95;;;6.35;;
65387;SDS011;51992;53.528;49.474;2023-04-28T09:54:53;11.18;;;6.85;;
65387;SDS011;51992;53.528;49.474;2023-04-28T09:57:19;17.02;;;8.00;;
65387;SDS011;51992;53.528;49.474;2023-04-28T09:59:47;16.33;;;6.55;;
65387;SDS011;51992;53.528;49.474;2023-04-28T10:02:14;17.10;;;7.13;;
65387;SDS011;51992;53.528;49.474;2023-04-28T10:04:41;10.27;;;6.40;;
65387;SDS011;51992;53.528;49.474;2023-04-28T10:07:09;15.60;;;8.13;;
65387;SDS011;51992;53.528;49.474;2023-04-28T10:09:35;11.50;;;6.53;;
65387;SDS011;51992;53.528;49.474;2023-04-28T10:12:02;27.77;;;8.18;;
65387;SDS011;51992;53.528;49.474;2023-04-28T10:14:29;11.60;;;6.25;;
65387;SDS011;51992;53.528;49.474;2023-04-28T10:16:56;24.67;;;6.35;;
65387;SDS011;51992;53.528;49.474;2023-04-28T10:19:23;9.20;;;5.07;;
65387;SDS011;51992;53.528;49.474;2023-04-28T10:21:55;10.00;;;5.53;;
65387;SDS011;51992;53.528;49.474;2023-04-28T10:24:27;12.05;;;6.85;;
65387;SDS011;51992;53.528;49.474;2023-04-28T10:27:02;16.73;;;7.15;;
65387;SDS011;51992;53.528;49.474;2023-04-28T10:29:29;18.33;;;8.00;;
65387;SDS011;51992;53.528;49.474;2023-04-28T10:35:42;26.08;;;9.30;;
65387;SDS011;51992;53.528;49.474;2023-04-28T10:38:11;24.25;;;8.30;;
65387;SDS011;51992;53.528;49.474;2023-04-28T10:43:10;9.48;;;7.45;;
65387;SDS011;51992;53.528;49.474;2023-04-28T10:48:14;12.23;;;6.93;;
65387;SDS011;51992;53.528;49.474;2023-04-28T10:54:05;24.35;;;7.55;;
65387;SDS011;51992;53.528;49.474;2023-04-28T10:56:17;19.40;;;7.65;;
65387;SDS011;51992;53.528;49.474;2023-04-28T10:58:49;12.02;;;6.20;;
65387;SDS011;51992;53.528;49.474;2023-04-28T11:01:32;15.82;;;6.20;;
65387;SDS011;51992;53.528;49.474;2023-04-28T11:04:08;11.20;;;6.35;;
65387;SDS011;51992;53.528;49.474;2023-04-28T11:11:37;7.82;;;3.08;;
65387;SDS011;51992;53.528;49.474;2023-04-28T11:16:55;8.25;;;4.80;;
65387;SDS011;51992;53.528;49.474;2023-04-28T11:19:25;37.20;;;5.75;;
65387;SDS011;51992;53.528;49.474;2023-04-28T11:21:51;20.25;;;3.45;;
65387;SDS011;51992;53.528;49.474;2023-04-28T11:24:18;8.30;;;3.10;;
65387;SDS011;51992;53.528;49.474;2023-04-28T11:26:44;7.10;;;3.20;;
65387;SDS011;51992;53.528;49.474;2023-04-28T11:29:10;14.38;;;3.08;;
65387;SDS011;51992;53.528;49.474;2023-04-28T11:31:36;6.25;;;2.50;;
65387;SDS011;51992;53.528;49.474;2023-04-28T11:38:56;8.77;;;3.05;;
65387;SDS011;51992;53.528;49.474;2023-04-28T11:41:22;6.65;;;2.85;;
65387;SDS011;51992;53.528;49.474;2023-04-28T11:43:47;12.85;;;3.20;;
65387;SDS011;51992;53.528;49.474;2023-04-28T11:46:17;7.88;;;2.55;;
65387;SDS011;51992;53.528;49.474;2023-04-28T11:48:43;17.85;;;3.33;;
65387;SDS011;51992;53.528;49.474;2023-04-28T11:51:09;6.20;;;2.65;;
65387;SDS011;51992;53.528;49.474;2023-04-28T11:53:44;6.47;;;2.50;;
65387;SDS011;51992;53.528;49.474;2023-04-28T11:56:10;12.60;;;4.47;;
65387;SDS011;51992;53.528;49.474;2023-04-28T11:58:37;10.43;;;5.05;;
65387;SDS011;51992;53.528;49.474;2023-04-28T12:01:10;20.42;;;7.13;;
65387;SDS011;51992;53.528;49.474;2023-04-28T12:03:43;25.85;;;6.68;;
65387;SDS011;51992;53.528;49.474;2023-04-28T12:06:09;34.95;;;6.63;;
65387;SDS011;51992;53.528;49.474;2023-04-28T12:08:35;18.95;;;4.45;;
65387;SDS011;51992;53.528;49.474;2023-04-28T12:11:07;17.65;;;5.10;;
65387;SDS011;51992;53.528;49.474;2023-04-28T12:13:34;10.55;;;5.13;;
65387;SDS011;51992;53.528;49.474;2023-04-28T12:16:03;6.38;;;5.43;;
65387;SDS011;51992;53.528;49.474;2023-04-28T12:18:32;13.07;;;5.25;;
65387;SDS011;51992;53.528;49.474;2023-04-28T12:20:58;29.20;;;7.75;;
65387;SDS011;51992;53.528;49.474;2023-04-28T12:23:31;40.75;;;9.27;;
65387;SDS011;51992;53.528;49.474;2023-04-28T12:25:57;14.40;;;6.10;;
65387;SDS011;51992;53.528;49.474;2023-04-28T12:28:23;47.70;;;11.40;;
65387;SDS011;51992;53.528;49.474;2023-04-28T12:30:49;75.20;;;15.20;;
65387;SDS011;51992;53.528;49.474;2023-04-28T12:33:25;105.75;;;17.58;;
65387;SDS011;51992;53.528;49.474;2023-04-28T12:35:52;302.92;;;39.42;;
65387;SDS011;51992;53.528;49.474;2023-04-28T12:38:19;54.40;;;11.18;;
65387;SDS011;51992;53.528;49.474;2023-04-28T12:40:44;21.08;;;8.23;;
65387;SDS011;51992;53.528;49.474;2023-04-28T12:43:11;31.90;;;8.27;;
65387;SDS011;51992;53.528;49.474;2023-04-28T12:45:37;17.40;;;8.07;;
65387;SDS011;51992;53.528;49.474;2023-04-28T12:48:02;13.13;;;6.53;;
65387;SDS011;51992;53.528;49.474;2023-04-28T12:50:28;12.98;;;7.20;;
65387;SDS011;51992;53.528;49.474;2023-04-28T12:52:57;19.02;;;7.35;;
65387;SDS011;51992;53.528;49.474;2023-04-28T12:55:23;15.13;;;7.50;;
65387;SDS011;51992;53.528;49.474;2023-04-28T12:57:49;27.00;;;8.48;;
65387;SDS011;51992;53.528;49.474;2023-04-28T13:00:14;31.88;;;10.57;;
65387;SDS011;51992;53.528;49.474;2023-04-28T13:02:41;22.63;;;9.23;;
65387;SDS011;51992;53.528;49.474;2023-04-28T13:05:06;55.50;;;12.85;;
65387;SDS011;51992;53.528;49.474;2023-04-28T13:07:33;33.25;;;9.30;;
65387;SDS011;51992;53.528;49.474;2023-04-28T13:09:59;12.85;;;7.32;;
65387;SDS011;51992;53.528;49.474;2023-04-28T13:12:25;9.50;;;7.50;;
65387;SDS011;51992;53.528;49.474;2023-04-28T13:14:50;9.77;;;5.80;;
65387;SDS011;51992;53.528;49.474;2023-04-28T13:17:16;10.00;;;5.25;;
65387;SDS011;51992;53.528;49.474;2023-04-28T13:19:42;30.02;;;6.60;;
65387;SDS011;51992;53.528;49.474;2023-04-28T13:22:08;9.52;;;4.70;;
65387;SDS011;51992;53.528;49.474;2023-04-28T13:24:34;7.35;;;4.72;;
65387;SDS011;51992;53.528;49.474;2023-04-28T13:27:00;12.27;;;4.20;;
65387;SDS011;51992;53.528;49.474;2023-04-28T13:29:29;19.58;;;5.45;;
65387;SDS011;51992;53.528;49.474;2023-04-28T13:31:55;17.98;;;5.43;;
65387;SDS011;51992;53.528;49.474;2023-04-28T13:34:21;20.98;;;5.50;;
65387;SDS011;51992;53.528;49.474;2023-04-28T13:36:46;10.98;;;5.20;;
65387;SDS011;51992;53.528;49.474;2023-04-28T13:39:15;9.98;;;4.68;;
65387;SDS011;51992;53.528;49.474;2023-04-28T13:41:41;7.80;;;4.47;;
65387;SDS011;51992;53.528;49.474;2023-04-28T13:44:07;10.98;;;4.80;;
65387;SDS011;51992;53.528;49.474;2023-04-28T13:46:33;29.65;;;8.00;;
65387;SDS011;51992;53.528;49.474;2023-04-28T13:48:59;18.02;;;5.32;;
65387;SDS011;51992;53.528;49.474;2023-04-28T13:51:25;9.63;;;4.05;;
65387;SDS011;51992;53.528;49.474;2023-04-28T13:53:50;14.73;;;4.07;;
65387;SDS011;51992;53.528;49.474;2023-04-28T13:56:16;19.77;;;5.43;;
65387;SDS011;51992;53.528;49.474;2023-04-28T13:58:42;8.73;;;3.80;;
65387;SDS011;51992;53.528;49.474;2023-04-28T14:01:11;13.60;;;5.72;;
65387;SDS011;51992;53.528;49.474;2023-04-28T14:03:36;33.60;;;6.07;;
65387;SDS011;51992;53.528;49.474;2023-04-28T14:06:02;24.00;;;6.85;;
65387;SDS011;51992;53.528;49.474;2023-04-28T14:08:28;50.08;;;8.57;;
65387;SDS011;51992;53.528;49.474;2023-04-28T14:10:54;19.40;;;6.80;;
65387;SDS011;51992;53.528;49.474;2023-04-28T14:13:20;18.10;;;6.13;;
65387;SDS011;51992;53.528;49.474;2023-04-28T14:15:46;20.10;;;5.65;;
65387;SDS011;51992;53.528;49.474;2023-04-28T14:18:12;12.68;;;4.72;;
65387;SDS011;51992;53.528;49.474;2023-04-28T14:20:38;12.05;;;4.20;;
65387;SDS011;51992;53.528;49.474;2023-04-28T14:23:03;22.67;;;5.00;;
65387;SDS011;51992;53.528;49.474;2023-04-28T14:25:29;31.70;;;16.52;;
65387;SDS011;51992;53.528;49.474;2023-04-28T14:27:55;30.00;;;10.05;;
65387;SDS011;51992;53.528;49.474;2023-04-28T14:30:21;23.98;;;9.82;;
65387;SDS011;51992;53.528;49.474;2023-04-28T14:32:47;62.47;;;19.15;;
65387;SDS011;51992;53.528;49.474;2023-04-28T14:35:14;22.83;;;7.28;;
65387;SDS011;51992;53.528;49.474;2023-04-28T14:37:39;6.10;;;3.80;;
65387;SDS011;51992;53.528;49.474;2023-04-28T14:40:05;9.90;;;3.70;;
65387;SDS011;51992;53.528;49.474;2023-04-28T14:42:32;26.25;;;4.80;;
65387;SDS011;51992;53.528;49.474;2023-04-28T14:45:04;40.08;;;5.38;;
65387;SDS011;51992;53.528;49.474;2023-04-28T14:47:30;8.63;;;3.65;;
65387;SDS011;51992;53.528;49.474;2023-04-28T14:49:56;7.88;;;3.55;;
65387;SDS011;51992;53.528;49.474;2023-04-28T14:52:23;17.70;;;4.10;;
65387;SDS011;51992;53.528;49.474;2023-04-28T14:54:50;9.68;;;4.22;;
65387;SDS011;51992;53.528;49.474;2023-04-28T14:57:15;9.43;;;4.03;;
65387;SDS011;51992;53.528;49.474;2023-04-28T14:59:41;12.00;;;4.72;;
65387;SDS011;51992;53.528;49.474;2023-04-28T15:02:07;34.78;;;7.68;;
65387;SDS011;51992;53.528;49.474;2023-04-28T15:04:33;12.93;;;5.35;;
65387;SDS011;51992;53.528;49.474;2023-04-28T15:06:59;12.57;;;7.25;;
65387;SDS011;51992;53.528;49.474;2023-04-28T15:09:26;18.13;;;7.75;;
65387;SDS011;51992;53.528;49.474;2023-04-28T15:11:52;18.70;;;7.20;;
65387;SDS011;51992;53.528;49.474;2023-04-28T16:38:03;53.63;;;25.27;;
65387;SDS011;51992;53.528;49.474;2023-04-28T16:40:29;64.45;;;23.75;;
65387;SDS011;51992;53.528;49.474;2023-04-28T16:42:55;47.88;;;22.13;;
65387;SDS011;51992;53.528;49.474;2023-04-28T16:45:20;39.35;;;17.95;;
65387;SDS011;51992;53.528;49.474;2023-04-28T16:47:48;42.47;;;18.42;;
65387;SDS011;51992;53.528;49.474;2023-04-28T16:50:14;43.80;;;20.88;;
65387;SDS011;51992;53.528;49.474;2023-04-28T16:52:40;39.30;;;19.45;;